Time,TemperatureF,DewpointF,PressureIn,WindDirection,WindDirectionDegrees,WindSpeedMPH,WindSpeedGustMPH,Humidity,HourlyPrecipIn,Conditions,Clouds,dailyrainin,SolarRadiationWatts/m^2,SoftwareType,DateUTC
2013-04-15 00:13:00,24.0,11.0,-100.00,North,4,0.0,1.0,58,0.00,,,-99.99,0.000000,,2013-04-15 08:13:00,
2013-04-15 00:22:00,24.0,11.0,-100.00,North,4,0.0,1.0,58,0.00,,,-99.99,0.000000,,2013-04-15 08:22:00,
2013-04-15 00:33:00,24.0,11.0,-100.00,North,4,0.0,1.0,58,0.00,,,-99.99,0.000000,,2013-04-15 08:33:00,
2013-04-15 00:42:00,24.0,11.0,-100.00,North,4,0.0,1.0,58,0.00,,,-99.99,0.000000,,2013-04-15 08:42:00,
2013-04-15 00:51:00,24.0,11.0,-100.00,North,4,0.0,1.0,58,0.00,,,-99.99,0.000000,,2013-04-15 08:51:00,
2013-04-15 01:12:00,24.0,11.0,-100.00,NNE,17,0.0,1.0,56,0.00,,,0.00,0.000000,,2013-04-15 09:12:00,
2013-04-15 01:22:00,24.0,11.0,-100.00,NNE,17,0.0,1.0,56,0.00,,,0.00,0.000000,,2013-04-15 09:22:00,
2013-04-15 01:32:00,24.0,11.0,-100.00,NNE,17,0.0,1.0,56,0.00,,,0.00,0.000000,,2013-04-15 09:32:00,
2013-04-15 01:42:00,24.0,11.0,-100.00,NNE,17,0.0,1.0,56,0.00,,,0.00,0.000000,,2013-04-15 09:42:00,
2013-04-15 01:52:00,24.0,11.0,-100.00,NNE,17,0.0,1.0,56,0.00,,,0.00,0.000000,,2013-04-15 09:52:00,
2013-04-15 02:23:00,22.0,12.0,-100.00,North,5,0.0,2.0,65,0.00,,,0.00,0.000000,,2013-04-15 10:23:00,
2013-04-15 02:33:00,22.0,12.0,-100.00,North,5,0.0,2.0,65,0.00,,,0.00,0.000000,,2013-04-15 10:33:00,
2013-04-15 02:42:00,22.0,12.0,-100.00,North,5,0.0,2.0,65,0.00,,,0.00,0.000000,,2013-04-15 10:42:00,
2013-04-15 02:52:00,22.0,12.0,-100.00,North,5,0.0,2.0,65,0.00,,,0.00,0.000000,,2013-04-15 10:52:00,
2013-04-15 03:12:00,22.0,11.0,-100.00,North,2,0.0,2.0,61,0.00,,,0.00,0.000000,,2013-04-15 11:12:00,
2013-04-15 03:22:00,22.0,11.0,-100.00,North,2,0.0,2.0,61,0.00,,,0.00,0.000000,,2013-04-15 11:22:00,
2013-04-15 03:32:00,22.0,11.0,-100.00,North,2,0.0,2.0,61,0.00,,,0.00,0.000000,,2013-04-15 11:32:00,
2013-04-15 03:42:00,22.0,11.0,-100.00,North,2,0.0,2.0,61,0.00,,,0.00,0.000000,,2013-04-15 11:42:00,
2013-04-15 03:52:00,22.0,11.0,-100.00,North,2,0.0,2.0,61,0.00,,,0.00,0.000000,,2013-04-15 11:52:00,
2013-04-15 04:13:00,20.0,11.0,-100.00,NNW,332,1.0,1.0,66,0.00,,,0.00,0.000000,,2013-04-15 12:13:00,
2013-04-15 04:23:00,20.0,11.0,-100.00,NNW,332,1.0,1.0,66,0.00,,,0.00,0.000000,,2013-04-15 12:23:00,
2013-04-15 04:33:00,20.0,11.0,-100.00,NNW,332,1.0,1.0,66,0.00,,,0.00,0.000000,,2013-04-15 12:33:00,
2013-04-15 04:42:00,20.0,11.0,-100.00,NNW,332,1.0,1.0,66,0.00,,,0.00,0.000000,,2013-04-15 12:42:00,
2013-04-15 04:52:00,20.0,11.0,-100.00,NNW,332,1.0,1.0,66,0.00,,,0.00,0.000000,,2013-04-15 12:52:00,
2013-04-15 05:12:00,19.0,10.0,-100.00,North,357,1.0,3.0,67,0.00,,,0.00,0.000000,,2013-04-15 13:12:00,
2013-04-15 05:23:00,19.0,10.0,-100.00,North,357,1.0,3.0,67,0.00,,,0.00,0.000000,,2013-04-15 13:23:00,
2013-04-15 05:33:00,19.0,10.0,-100.00,North,357,1.0,3.0,67,0.00,,,0.00,0.000000,,2013-04-15 13:33:00,
2013-04-15 05:42:00,19.0,10.0,-100.00,North,357,1.0,3.0,67,0.00,,,0.00,0.000000,,2013-04-15 13:42:00,
2013-04-15 05:52:00,19.0,10.0,-100.00,North,357,1.0,3.0,67,0.00,,,0.00,0.000000,,2013-04-15 13:52:00,
2013-04-15 06:22:00,17.0,8.0,-100.00,South,170,0.0,3.0,67,0.00,,,0.00,0.000000,,2013-04-15 14:22:00,
2013-04-15 06:33:00,17.0,8.0,-100.00,South,170,0.0,3.0,67,0.00,,,0.00,0.000000,,2013-04-15 14:33:00,
2013-04-15 06:43:00,17.0,8.0,-100.00,South,170,0.0,3.0,67,0.00,,,0.00,0.000000,,2013-04-15 14:43:00,
2013-04-15 06:53:00,17.0,8.0,-100.00,South,170,0.0,3.0,67,0.00,,,0.00,0.000000,,2013-04-15 14:53:00,
2013-04-15 07:13:00,17.0,10.0,-100.00,NW,322,0.0,0.0,74,0.00,,,0.00,1.000000,,2013-04-15 15:13:00,
2013-04-15 07:23:00,17.0,10.0,-100.00,NW,322,0.0,0.0,74,0.00,,,0.00,1.000000,,2013-04-15 15:23:00,
2013-04-15 07:34:00,17.0,10.0,-100.00,NW,322,0.0,0.0,74,0.00,,,0.00,1.000000,,2013-04-15 15:34:00,
2013-04-15 07:43:00,17.0,10.0,-100.00,NW,322,0.0,0.0,74,0.00,,,0.00,1.000000,,2013-04-15 15:43:00,
2013-04-15 07:53:00,17.0,10.0,-100.00,NW,322,0.0,0.0,74,0.00,,,0.00,1.000000,,2013-04-15 15:53:00,
2013-04-15 08:13:00,20.0,14.0,-100.00,West,277,0.0,1.0,76,0.00,,,0.00,30.000000,,2013-04-15 16:13:00,
2013-04-15 08:24:00,20.0,14.0,-100.00,West,277,0.0,1.0,76,0.00,,,0.00,30.000000,,2013-04-15 16:24:00,
2013-04-15 08:33:00,20.0,14.0,-100.00,West,277,0.0,1.0,76,0.00,,,0.00,30.000000,,2013-04-15 16:33:00,
2013-04-15 08:43:00,20.0,14.0,-100.00,West,277,0.0,1.0,76,0.00,,,0.00,30.000000,,2013-04-15 16:43:00,
2013-04-15 08:52:00,20.0,14.0,-100.00,West,277,0.0,1.0,76,0.00,,,0.00,30.000000,,2013-04-15 16:52:00,
2013-04-15 09:21:00,23.0,12.0,-100.00,NNE,13,0.0,3.0,63,0.00,,,0.00,55.000000,,2013-04-15 17:21:00,
2013-04-15 09:33:00,23.0,12.0,-100.00,NNE,13,0.0,3.0,63,0.00,,,0.00,55.000000,,2013-04-15 17:33:00,
2013-04-15 09:43:00,23.0,12.0,-100.00,NNE,13,0.0,3.0,63,0.00,,,0.00,55.000000,,2013-04-15 17:43:00,
2013-04-15 09:52:00,23.0,12.0,-100.00,NNE,13,0.0,3.0,63,0.00,,,0.00,55.000000,,2013-04-15 17:52:00,
2013-04-15 10:12:00,30.0,12.0,-100.00,North,3,3.0,6.0,46,0.00,,,0.00,153.000000,,2013-04-15 18:12:00,
2013-04-15 10:23:00,30.0,12.0,-100.00,North,3,3.0,6.0,46,0.00,,,0.00,153.000000,,2013-04-15 18:23:00,
2013-04-15 10:32:00,30.0,12.0,-100.00,North,3,3.0,6.0,46,0.00,,,0.00,153.000000,,2013-04-15 18:32:00,
2013-04-15 10:42:00,30.0,12.0,-100.00,North,3,3.0,6.0,46,0.00,,,0.00,153.000000,,2013-04-15 18:42:00,
2013-04-15 10:51:00,30.0,12.0,-100.00,North,3,3.0,6.0,46,0.00,,,0.00,153.000000,,2013-04-15 18:51:00,
2013-04-15 11:12:00,36.0,14.0,-100.00,NNW,336,3.0,11.0,40,0.00,,,0.00,433.000000,,2013-04-15 19:12:00,
2013-04-15 11:22:00,36.0,14.0,-100.00,NNW,336,3.0,11.0,40,0.00,,,0.00,433.000000,,2013-04-15 19:22:00,
2013-04-15 11:34:00,36.0,14.0,-100.00,NNW,336,3.0,11.0,40,0.00,,,0.00,433.000000,,2013-04-15 19:34:00,
2013-04-15 11:45:00,36.0,14.0,-100.00,NNW,336,3.0,11.0,40,0.00,,,0.00,433.000000,,2013-04-15 19:45:00,
2013-04-15 11:53:00,36.0,14.0,-100.00,NNW,336,3.0,11.0,40,0.00,,,0.00,433.000000,,2013-04-15 19:53:00,
2013-04-15 12:22:00,40.0,10.0,-100.00,North,7,5.0,11.0,29,0.00,,,0.00,629.000000,,2013-04-15 20:22:00,
2013-04-15 12:32:00,40.0,10.0,-100.00,North,7,5.0,11.0,29,0.00,,,0.00,629.000000,,2013-04-15 20:32:00,
2013-04-15 12:42:00,40.0,10.0,-100.00,North,7,5.0,11.0,29,0.00,,,0.00,629.000000,,2013-04-15 20:42:00,
2013-04-15 12:52:00,40.0,10.0,-100.00,North,7,5.0,11.0,29,0.00,,,0.00,629.000000,,2013-04-15 20:52:00,
2013-04-15 13:12:00,42.0,10.0,-100.00,North,8,4.0,11.0,27,0.00,,,0.00,700.000000,,2013-04-15 21:12:00,
2013-04-15 13:22:00,42.0,10.0,-100.00,North,8,4.0,11.0,27,0.00,,,0.00,700.000000,,2013-04-15 21:22:00,
2013-04-15 13:32:00,42.0,10.0,-100.00,North,8,4.0,11.0,27,0.00,,,0.00,700.000000,,2013-04-15 21:32:00,
2013-04-15 13:42:00,42.0,10.0,-100.00,North,8,4.0,11.0,27,0.00,,,0.00,700.000000,,2013-04-15 21:42:00,
2013-04-15 13:52:00,42.0,10.0,-100.00,North,8,4.0,11.0,27,0.00,,,0.00,700.000000,,2013-04-15 21:52:00,
2013-04-15 14:23:00,44.0,11.0,-100.00,NNE,24,4.0,11.0,26,0.00,,,0.00,796.000000,,2013-04-15 22:23:00,
2013-04-15 14:32:00,44.0,11.0,-100.00,NNE,24,4.0,11.0,26,0.00,,,0.00,796.000000,,2013-04-15 22:32:00,
2013-04-15 14:42:00,44.0,11.0,-100.00,NNE,24,4.0,11.0,26,0.00,,,0.00,796.000000,,2013-04-15 22:42:00,
2013-04-15 14:52:00,44.0,11.0,-100.00,NNE,24,4.0,11.0,26,0.00,,,0.00,796.000000,,2013-04-15 22:52:00,
2013-04-15 15:22:00,44.0,9.0,-100.00,North,349,5.0,12.0,23,0.00,,,0.00,796.000000,,2013-04-15 23:22:00,
2013-04-15 15:32:00,44.0,9.0,-100.00,North,349,5.0,12.0,23,0.00,,,0.00,796.000000,,2013-04-15 23:32:00,
2013-04-15 15:42:00,44.0,9.0,-100.00,North,349,5.0,12.0,23,0.00,,,0.00,796.000000,,2013-04-15 23:42:00,
2013-04-15 15:52:00,44.0,9.0,-100.00,North,349,5.0,12.0,23,0.00,,,0.00,796.000000,,2013-04-15 23:52:00,
2013-04-15 16:12:00,45.0,9.0,-100.00,NW,319,3.0,11.0,23,0.00,,,0.00,755.000000,,2013-04-16 00:12:00,
2013-04-15 16:22:00,45.0,9.0,-100.00,NW,319,3.0,11.0,23,0.00,,,0.00,755.000000,,2013-04-16 00:22:00,
2013-04-15 16:32:00,45.0,9.0,-100.00,NW,319,3.0,11.0,23,0.00,,,0.00,755.000000,,2013-04-16 00:32:00,
2013-04-15 16:42:00,45.0,9.0,-100.00,NW,319,3.0,11.0,23,0.00,,,0.00,755.000000,,2013-04-16 00:42:00,
2013-04-15 16:51:00,45.0,9.0,-100.00,NW,319,3.0,11.0,23,0.00,,,0.00,755.000000,,2013-04-16 00:51:00,
2013-04-15 17:12:00,46.0,9.0,-100.00,WNW,299,3.0,10.0,22,0.00,,,0.00,673.000000,,2013-04-16 01:12:00,
2013-04-15 17:22:00,46.0,9.0,-100.00,WNW,299,3.0,10.0,22,0.00,,,0.00,673.000000,,2013-04-16 01:22:00,
2013-04-15 17:32:00,46.0,9.0,-100.00,WNW,299,3.0,10.0,22,0.00,,,0.00,673.000000,,2013-04-16 01:32:00,
2013-04-15 17:42:00,46.0,9.0,-100.00,WNW,299,3.0,10.0,22,0.00,,,0.00,673.000000,,2013-04-16 01:42:00,
2013-04-15 17:51:00,46.0,9.0,-100.00,WNW,299,3.0,10.0,22,0.00,,,0.00,673.000000,,2013-04-16 01:51:00,
2013-04-15 18:22:00,44.0,9.0,-100.00,North,11,4.0,10.0,23,0.00,,,0.00,549.000000,,2013-04-16 02:22:00,
2013-04-15 18:32:00,44.0,9.0,-100.00,North,11,4.0,10.0,23,0.00,,,0.00,549.000000,,2013-04-16 02:32:00,
2013-04-15 18:42:00,44.0,9.0,-100.00,North,11,4.0,10.0,23,0.00,,,0.00,549.000000,,2013-04-16 02:42:00,
2013-04-15 18:51:00,44.0,9.0,-100.00,North,11,4.0,10.0,23,0.00,,,0.00,549.000000,,2013-04-16 02:51:00,
2013-04-15 19:12:00,42.0,8.0,-100.00,NNW,341,3.0,9.0,24,0.00,,,0.00,341.000000,,2013-04-16 03:12:00,
2013-04-15 19:22:00,42.0,8.0,-100.00,NNW,341,3.0,9.0,24,0.00,,,0.00,341.000000,,2013-04-16 03:22:00,
2013-04-15 19:33:00,42.0,8.0,-100.00,NNW,341,3.0,9.0,24,0.00,,,0.00,341.000000,,2013-04-16 03:33:00,
2013-04-15 19:43:00,42.0,8.0,-100.00,NNW,341,3.0,9.0,24,0.00,,,0.00,341.000000,,2013-04-16 03:43:00,
2013-04-15 19:52:00,42.0,8.0,-100.00,NNW,341,3.0,9.0,24,0.00,,,0.00,341.000000,,2013-04-16 03:52:00,
2013-04-15 20:12:00,38.0,7.0,-100.00,NNW,337,2.0,12.0,27,0.00,,,0.00,113.000000,,2013-04-16 04:12:00,
2013-04-15 20:23:00,38.0,7.0,-100.00,NNW,337,2.0,12.0,27,0.00,,,0.00,113.000000,,2013-04-16 04:23:00,
2013-04-15 20:32:00,38.0,7.0,-100.00,NNW,337,2.0,12.0,27,0.00,,,0.00,113.000000,,2013-04-16 04:32:00,
2013-04-15 20:42:00,38.0,7.0,-100.00,NNW,337,2.0,12.0,27,0.00,,,0.00,113.000000,,2013-04-16 04:42:00,
2013-04-15 20:52:00,38.0,7.0,-100.00,NNW,337,2.0,12.0,27,0.00,,,0.00,113.000000,,2013-04-16 04:52:00,
2013-04-15 21:22:00,34.0,10.0,-100.00,North,357,2.0,9.0,36,0.00,,,0.00,34.000000,,2013-04-16 05:22:00,
2013-04-15 21:32:00,34.0,10.0,-100.00,North,357,2.0,9.0,36,0.00,,,0.00,34.000000,,2013-04-16 05:32:00,
2013-04-15 21:42:00,34.0,10.0,-100.00,North,357,2.0,9.0,36,0.00,,,0.00,34.000000,,2013-04-16 05:42:00,
2013-04-15 21:51:00,34.0,10.0,-100.00,North,357,2.0,9.0,36,0.00,,,0.00,34.000000,,2013-04-16 05:51:00,
2013-04-15 22:12:00,28.0,9.0,-100.00,NNE,12,0.0,4.0,44,0.00,,,0.00,6.000000,,2013-04-16 06:12:00,
2013-04-15 22:22:00,28.0,9.0,-100.00,NNE,12,0.0,4.0,44,0.00,,,0.00,6.000000,,2013-04-16 06:22:00,
2013-04-15 22:32:00,28.0,9.0,-100.00,NNE,12,0.0,4.0,44,0.00,,,0.00,6.000000,,2013-04-16 06:32:00,
2013-04-15 22:42:00,28.0,9.0,-100.00,NNE,12,0.0,4.0,44,0.00,,,0.00,6.000000,,2013-04-16 06:42:00,
2013-04-15 22:51:00,28.0,9.0,-100.00,NNE,12,0.0,4.0,44,0.00,,,0.00,6.000000,,2013-04-16 06:51:00,
2013-04-15 23:12:00,26.0,12.0,-100.00,NNW,330,1.0,4.0,54,0.00,,,0.00,0.000000,,2013-04-16 07:12:00,
2013-04-15 23:22:00,26.0,12.0,-100.00,NNW,330,1.0,4.0,54,0.00,,,0.00,0.000000,,2013-04-16 07:22:00,
2013-04-15 23:32:00,26.0,12.0,-100.00,NNW,330,1.0,4.0,54,0.00,,,0.00,0.000000,,2013-04-16 07:32:00,
2013-04-15 23:42:00,26.0,12.0,-100.00,NNW,330,1.0,4.0,54,0.00,,,0.00,0.000000,,2013-04-16 07:42:00,
2013-04-15 23:53:00,26.0,12.0,-100.00,NNW,330,1.0,4.0,54,0.00,,,0.00,0.000000,,2013-04-16 07:53:00,